sensor_id;sensor_type;location;lat;lon;timestamp;P1;durP1;ratioP1;P2;durP2;ratioP2
29824;SDS011;16713;52.916;12.834;2023-09-12T00:02:10;16.00;;;12.35;;
29824;SDS011;16713;52.916;12.834;2023-09-12T00:04:37;18.77;;;11.93;;
29824;SDS011;16713;52.916;12.834;2023-09-12T00:07:03;16.98;;;11.70;;
29824;SDS011;16713;52.916;12.834;2023-09-12T00:09:30;19.77;;;13.13;;
29824;SDS011;16713;52.916;12.834;2023-09-12T00:11:56;19.08;;;12.68;;
29824;SDS011;16713;52.916;12.834;2023-09-12T00:14:23;21.40;;;11.93;;
29824;SDS011;16713;52.916;12.834;2023-09-12T00:16:49;15.90;;;11.65;;
29824;SDS011;16713;52.916;12.834;2023-09-12T00:19:18;18.08;;;11.60;;
29824;SDS011;16713;52.916;12.834;2023-09-12T00:21:45;19.45;;;12.48;;
29824;SDS011;16713;52.916;12.834;2023-09-12T00:24:11;19.80;;;11.35;;
29824;SDS011;16713;52.916;12.834;2023-09-12T00:26:38;20.08;;;12.75;;
29824;SDS011;16713;52.916;12.834;2023-09-12T00:29:04;19.70;;;12.75;;
29824;SDS011;16713;52.916;12.834;2023-09-12T00:31:31;17.13;;;11.77;;
29824;SDS011;16713;52.916;12.834;2023-09-12T00:33:57;18.73;;;12.35;;
29824;SDS011;16713;52.916;12.834;2023-09-12T00:36:24;21.48;;;12.88;;
29824;SDS011;16713;52.916;12.834;2023-09-12T00:38:50;18.42;;;12.70;;
29824;SDS011;16713;52.916;12.834;2023-09-12T00:41:17;15.88;;;11.75;;
29824;SDS011;16713;52.916;12.834;2023-09-12T00:43:44;17.90;;;12.55;;
29824;SDS011;16713;52.916;12.834;2023-09-12T00:46:10;22.20;;;13.15;;
29824;SDS011;16713;52.916;12.834;2023-09-12T00:48:37;16.95;;;12.75;;
29824;SDS011;16713;52.916;12.834;2023-09-12T00:51:05;21.52;;;12.88;;
29824;SDS011;16713;52.916;12.834;2023-09-12T00:53:32;17.00;;;12.20;;
29824;SDS011;16713;52.916;12.834;2023-09-12T00:55:58;20.60;;;12.50;;
29824;SDS011;16713;52.916;12.834;2023-09-12T00:58:25;13.80;;;11.73;;
29824;SDS011;16713;52.916;12.834;2023-09-12T01:00:53;16.77;;;11.88;;
29824;SDS011;16713;52.916;12.834;2023-09-12T01:03:20;15.52;;;11.48;;
29824;SDS011;16713;52.916;12.834;2023-09-12T01:05:47;17.50;;;12.48;;
29824;SDS011;16713;52.916;12.834;2023-09-12T01:08:14;19.88;;;11.80;;
29824;SDS011;16713;52.916;12.834;2023-09-12T01:10:40;16.75;;;13.13;;
29824;SDS011;16713;52.916;12.834;2023-09-12T01:13:13;24.33;;;12.93;;
29824;SDS011;16713;52.916;12.834;2023-09-12T01:15:40;17.23;;;13.43;;
29824;SDS011;16713;52.916;12.834;2023-09-12T01:18:07;18.73;;;12.68;;
29824;SDS011;16713;52.916;12.834;2023-09-12T01:20:34;19.83;;;13.25;;
29824;SDS011;16713;52.916;12.834;2023-09-12T01:28:26;20.80;;;13.13;;
29824;SDS011;16713;52.916;12.834;2023-09-12T01:30:57;23.30;;;13.33;;
29824;SDS011;16713;52.916;12.834;2023-09-12T01:33:25;15.48;;;12.57;;
29824;SDS011;16713;52.916;12.834;2023-09-12T01:35:53;19.35;;;12.75;;
29824;SDS011;16713;52.916;12.834;2023-09-12T01:38:19;14.43;;;12.60;;
29824;SDS011;16713;52.916;12.834;2023-09-12T01:40:51;18.45;;;12.45;;
29824;SDS011;16713;52.916;12.834;2023-09-12T01:43:21;19.70;;;12.57;;
29824;SDS011;16713;52.916;12.834;2023-09-12T01:45:53;17.30;;;13.07;;
29824;SDS011;16713;52.916;12.834;2023-09-12T01:48:22;15.52;;;12.38;;
29824;SDS011;16713;52.916;12.834;2023-09-12T01:50:53;21.13;;;12.32;;
29824;SDS011;16713;52.916;12.834;2023-09-12T01:53:20;18.08;;;13.63;;
29824;SDS011;16713;52.916;12.834;2023-09-12T01:55:46;19.00;;;12.02;;
29824;SDS011;16713;52.916;12.834;2023-09-12T01:58:13;15.68;;;11.98;;
29824;SDS011;16713;52.916;12.834;2023-09-12T02:00:40;22.58;;;12.63;;
29824;SDS011;16713;52.916;12.834;2023-09-12T02:03:07;17.05;;;12.20;;
29824;SDS011;16713;52.916;12.834;2023-09-12T02:05:34;17.13;;;12.25;;
29824;SDS011;16713;52.916;12.834;2023-09-12T02:08:01;17.60;;;12.98;;
29824;SDS011;16713;52.916;12.834;2023-09-12T02:10:28;18.38;;;12.18;;
29824;SDS011;16713;52.916;12.834;2023-09-12T02:12:54;17.40;;;12.10;;
29824;SDS011;16713;52.916;12.834;2023-09-12T02:15:21;15.85;;;12.35;;
29824;SDS011;16713;52.916;12.834;2023-09-12T02:17:47;15.75;;;12.30;;
29824;SDS011;16713;52.916;12.834;2023-09-12T02:20:17;17.45;;;13.75;;
29824;SDS011;16713;52.916;12.834;2023-09-12T02:22:43;16.15;;;12.55;;
29824;SDS011;16713;52.916;12.834;2023-09-12T02:25:11;15.70;;;12.60;;
29824;SDS011;16713;52.916;12.834;2023-09-12T02:27:37;16.13;;;11.88;;
29824;SDS011;16713;52.916;12.834;2023-09-12T02:30:04;16.73;;;12.60;;
29824;SDS011;16713;52.916;12.834;2023-09-12T02:32:31;14.90;;;12.15;;
29824;SDS011;16713;52.916;12.834;2023-09-12T02:34:57;17.08;;;12.40;;
29824;SDS011;16713;52.916;12.834;2023-09-12T02:37:24;23.48;;;12.48;;
29824;SDS011;16713;52.916;12.834;2023-09-12T02:39:51;16.63;;;12.45;;
29824;SDS011;16713;52.916;12.834;2023-09-12T02:42:17;18.40;;;13.38;;
29824;SDS011;16713;52.916;12.834;2023-09-12T02:44:44;17.63;;;12.68;;
29824;SDS011;16713;52.916;12.834;2023-09-12T02:47:10;17.05;;;13.20;;
29824;SDS011;16713;52.916;12.834;2023-09-12T02:49:37;20.20;;;14.48;;
29824;SDS011;16713;52.916;12.834;2023-09-12T02:52:03;17.95;;;13.65;;
29824;SDS011;16713;52.916;12.834;2023-09-12T02:54:30;16.63;;;12.43;;
29824;SDS011;16713;52.916;12.834;2023-09-12T02:56:56;20.15;;;12.55;;
29824;SDS011;16713;52.916;12.834;2023-09-12T02:59:23;22.20;;;13.15;;
29824;SDS011;16713;52.916;12.834;2023-09-12T03:01:49;17.73;;;13.07;;
29824;SDS011;16713;52.916;12.834;2023-09-12T03:04:16;18.80;;;13.05;;
29824;SDS011;16713;52.916;12.834;2023-09-12T03:06:42;20.30;;;13.63;;
29824;SDS011;16713;52.916;12.834;2023-09-12T03:09:10;18.88;;;13.00;;
29824;SDS011;16713;52.916;12.834;2023-09-12T03:11:37;18.20;;;12.45;;
29824;SDS011;16713;52.916;12.834;2023-09-12T03:14:04;19.80;;;13.68;;
29824;SDS011;16713;52.916;12.834;2023-09-12T03:16:30;19.02;;;13.20;;
29824;SDS011;16713;52.916;12.834;2023-09-12T03:18:57;21.35;;;14.20;;
29824;SDS011;16713;52.916;12.834;2023-09-12T03:21:24;17.17;;;13.32;;
29824;SDS011;16713;52.916;12.834;2023-09-12T03:23:50;18.23;;;13.73;;
29824;SDS011;16713;52.916;12.834;2023-09-12T03:26:17;17.55;;;13.70;;
29824;SDS011;16713;52.916;12.834;2023-09-12T03:28:43;26.25;;;14.38;;
29824;SDS011;16713;52.916;12.834;2023-09-12T03:31:11;23.65;;;14.10;;
29824;SDS011;16713;52.916;12.834;2023-09-12T03:33:40;21.45;;;13.75;;
29824;SDS011;16713;52.916;12.834;2023-09-12T03:36:07;23.45;;;15.07;;
29824;SDS011;16713;52.916;12.834;2023-09-12T03:38:35;19.02;;;14.55;;
29824;SDS011;16713;52.916;12.834;2023-09-12T03:41:01;18.40;;;14.13;;
29824;SDS011;16713;52.916;12.834;2023-09-12T03:43:28;22.48;;;15.00;;
29824;SDS011;16713;52.916;12.834;2023-09-12T03:45:54;20.42;;;13.82;;
29824;SDS011;16713;52.916;12.834;2023-09-12T03:48:21;18.15;;;14.30;;
29824;SDS011;16713;52.916;12.834;2023-09-12T03:50:48;22.40;;;15.50;;
29824;SDS011;16713;52.916;12.834;2023-09-12T03:53:14;25.27;;;15.20;;
29824;SDS011;16713;52.916;12.834;2023-09-12T03:55:42;19.08;;;13.70;;
29824;SDS011;16713;52.916;12.834;2023-09-12T03:58:08;20.77;;;15.00;;
29824;SDS011;16713;52.916;12.834;2023-09-12T04:00:35;20.58;;;13.98;;
29824;SDS011;16713;52.916;12.834;2023-09-12T04:03:01;22.00;;;14.60;;
29824;SDS011;16713;52.916;12.834;2023-09-12T04:05:28;24.10;;;14.93;;
29824;SDS011;16713;52.916;12.834;2023-09-12T04:07:54;17.58;;;14.25;;
29824;SDS011;16713;52.916;12.834;2023-09-12T04:10:21;22.15;;;13.73;;
29824;SDS011;16713;52.916;12.834;2023-09-12T04:12:48;22.27;;;14.00;;
29824;SDS011;16713;52.916;12.834;2023-09-12T04:15:14;23.90;;;14.50;;
29824;SDS011;16713;52.916;12.834;2023-09-12T04:17:41;24.65;;;15.93;;
29824;SDS011;16713;52.916;12.834;2023-09-12T04:20:07;19.23;;;14.02;;
29824;SDS011;16713;52.916;12.834;2023-09-12T04:22:35;21.77;;;14.65;;
29824;SDS011;16713;52.916;12.834;2023-09-12T04:25:01;22.73;;;14.18;;
29824;SDS011;16713;52.916;12.834;2023-09-12T04:27:28;22.55;;;14.32;;
29824;SDS011;16713;52.916;12.834;2023-09-12T04:29:54;19.45;;;14.18;;
29824;SDS011;16713;52.916;12.834;2023-09-12T04:32:20;22.75;;;15.30;;
29824;SDS011;16713;52.916;12.834;2023-09-12T04:34:50;24.83;;;15.10;;
29824;SDS011;16713;52.916;12.834;2023-09-12T04:37:17;28.58;;;15.88;;
29824;SDS011;16713;52.916;12.834;2023-09-12T04:39:44;23.70;;;14.85;;
29824;SDS011;16713;52.916;12.834;2023-09-12T04:42:11;25.17;;;15.07;;
29824;SDS011;16713;52.916;12.834;2023-09-12T04:44:39;25.58;;;16.05;;
29824;SDS011;16713;52.916;12.834;2023-09-12T04:47:06;19.23;;;14.27;;
29824;SDS011;16713;52.916;12.834;2023-09-12T04:49:34;23.85;;;15.23;;
29824;SDS011;16713;52.916;12.834;2023-09-12T04:52:00;20.95;;;14.93;;
29824;SDS011;16713;52.916;12.834;2023-09-12T04:54:27;27.13;;;16.38;;
29824;SDS011;16713;52.916;12.834;2023-09-12T04:56:53;20.40;;;16.00;;
29824;SDS011;16713;52.916;12.834;2023-09-12T04:59:20;28.63;;;16.80;;
29824;SDS011;16713;52.916;12.834;2023-09-12T05:01:46;20.95;;;15.68;;
29824;SDS011;16713;52.916;12.834;2023-09-12T05:04:13;20.95;;;15.20;;
29824;SDS011;16713;52.916;12.834;2023-09-12T05:06:39;27.17;;;15.73;;
29824;SDS011;16713;52.916;12.834;2023-09-12T05:09:06;27.27;;;16.40;;
29824;SDS011;16713;52.916;12.834;2023-09-12T05:11:35;22.58;;;15.35;;
29824;SDS011;16713;52.916;12.834;2023-09-12T05:14:01;22.23;;;15.25;;
29824;SDS011;16713;52.916;12.834;2023-09-12T05:16:29;23.33;;;15.75;;
29824;SDS011;16713;52.916;12.834;2023-09-12T05:18:56;21.38;;;15.70;;
29824;SDS011;16713;52.916;12.834;2023-09-12T05:21:23;21.48;;;15.88;;
29824;SDS011;16713;52.916;12.834;2023-09-12T05:23:49;26.83;;;15.57;;
29824;SDS011;16713;52.916;12.834;2023-09-12T05:26:16;26.92;;;17.02;;
29824;SDS011;16713;52.916;12.834;2023-09-12T05:28:43;24.80;;;16.85;;
29824;SDS011;16713;52.916;12.834;2023-09-12T05:31:10;20.08;;;15.65;;
29824;SDS011;16713;52.916;12.834;2023-09-12T05:33:36;28.00;;;16.75;;
29824;SDS011;16713;52.916;12.834;2023-09-12T05:36:03;26.75;;;16.63;;
29824;SDS011;16713;52.916;12.834;2023-09-12T05:38:30;22.30;;;15.65;;
29824;SDS011;16713;52.916;12.834;2023-09-12T05:40:56;21.95;;;14.98;;
29824;SDS011;16713;52.916;12.834;2023-09-12T05:43:23;22.25;;;16.65;;
29824;SDS011;16713;52.916;12.834;2023-09-12T05:45:49;23.15;;;15.95;;
29824;SDS011;16713;52.916;12.834;2023-09-12T05:48:16;25.15;;;16.98;;
29824;SDS011;16713;52.916;12.834;2023-09-12T05:50:42;26.02;;;16.23;;
29824;SDS011;16713;52.916;12.834;2023-09-12T05:53:10;26.33;;;16.55;;
29824;SDS011;16713;52.916;12.834;2023-09-12T05:55:37;23.77;;;17.55;;
29824;SDS011;16713;52.916;12.834;2023-09-12T05:58:04;23.75;;;16.13;;
29824;SDS011;16713;52.916;12.834;2023-09-12T06:00:32;25.48;;;16.45;;
29824;SDS011;16713;52.916;12.834;2023-09-12T06:02:59;23.73;;;18.45;;
29824;SDS011;16713;52.916;12.834;2023-09-12T06:05:26;29.27;;;18.17;;
29824;SDS011;16713;52.916;12.834;2023-09-12T06:07:53;24.23;;;18.27;;
29824;SDS011;16713;52.916;12.834;2023-09-12T06:10:19;25.25;;;18.52;;
29824;SDS011;16713;52.916;12.834;2023-09-12T06:12:46;26.15;;;19.10;;
29824;SDS011;16713;52.916;12.834;2023-09-12T06:15:12;28.95;;;19.17;;
29824;SDS011;16713;52.916;12.834;2023-09-12T06:17:39;28.60;;;19.40;;
29824;SDS011;16713;52.916;12.834;2023-09-12T06:20:05;27.20;;;19.48;;
29824;SDS011;16713;52.916;12.834;2023-09-12T06:22:33;24.88;;;18.98;;
29824;SDS011;16713;52.916;12.834;2023-09-12T06:25:00;26.83;;;18.30;;
29824;SDS011;16713;52.916;12.834;2023-09-12T06:27:26;26.85;;;18.88;;
29824;SDS011;16713;52.916;12.834;2023-09-12T06:29:54;25.00;;;18.08;;
29824;SDS011;16713;52.916;12.834;2023-09-12T06:32:20;25.50;;;17.05;;
29824;SDS011;16713;52.916;12.834;2023-09-12T06:34:46;22.70;;;15.45;;
29824;SDS011;16713;52.916;12.834;2023-09-12T06:37:14;22.98;;;16.45;;
29824;SDS011;16713;52.916;12.834;2023-09-12T06:39:40;23.42;;;16.67;;
29824;SDS011;16713;52.916;12.834;2023-09-12T06:42:08;23.30;;;16.38;;
29824;SDS011;16713;52.916;12.834;2023-09-12T06:44:35;27.50;;;16.88;;
29824;SDS011;16713;52.916;12.834;2023-09-12T06:47:03;19.02;;;14.00;;
29824;SDS011;16713;52.916;12.834;2023-09-12T06:49:31;24.10;;;14.13;;
29824;SDS011;16713;52.916;12.834;2023-09-12T06:52:01;19.67;;;13.73;;
29824;SDS011;16713;52.916;12.834;2023-09-12T06:54:27;21.42;;;15.45;;
29824;SDS011;16713;52.916;12.834;2023-09-12T06:56:54;18.05;;;13.48;;
29824;SDS011;16713;52.916;12.834;2023-09-12T06:59:20;20.73;;;13.75;;
29824;SDS011;16713;52.916;12.834;2023-09-12T07:01:47;21.13;;;14.98;;
29824;SDS011;16713;52.916;12.834;2023-09-12T07:04:13;17.70;;;13.23;;
29824;SDS011;16713;52.916;12.834;2023-09-12T07:06:40;19.02;;;13.20;;
29824;SDS011;16713;52.916;12.834;2023-09-12T07:09:06;18.48;;;13.25;;
29824;SDS011;16713;52.916;12.834;2023-09-12T07:11:35;23.00;;;14.57;;
29824;SDS011;16713;52.916;12.834;2023-09-12T07:14:01;18.85;;;14.02;;
29824;SDS011;16713;52.916;12.834;2023-09-12T07:16:30;20.10;;;12.50;;
29824;SDS011;16713;52.916;12.834;2023-09-12T07:18:58;22.17;;;13.70;;
29824;SDS011;16713;52.916;12.834;2023-09-12T07:21:24;18.58;;;13.00;;
29824;SDS011;16713;52.916;12.834;2023-09-12T07:23:51;17.30;;;13.23;;
29824;SDS011;16713;52.916;12.834;2023-09-12T07:26:17;19.63;;;13.57;;
29824;SDS011;16713;52.916;12.834;2023-09-12T07:28:45;18.02;;;13.18;;
29824;SDS011;16713;52.916;12.834;2023-09-12T07:31:11;21.85;;;12.93;;
29824;SDS011;16713;52.916;12.834;2023-09-12T07:33:38;26.92;;;14.20;;
29824;SDS011;16713;52.916;12.834;2023-09-12T07:36:05;23.05;;;12.93;;
29824;SDS011;16713;52.916;12.834;2023-09-12T07:38:32;21.67;;;13.10;;
29824;SDS011;16713;52.916;12.834;2023-09-12T07:41:01;16.85;;;13.13;;
29824;SDS011;16713;52.916;12.834;2023-09-12T07:43:29;19.92;;;12.60;;
29824;SDS011;16713;52.916;12.834;2023-09-12T07:45:56;22.58;;;13.43;;
29824;SDS011;16713;52.916;12.834;2023-09-12T07:48:24;21.15;;;14.07;;
29824;SDS011;16713;52.916;12.834;2023-09-12T07:50:51;18.67;;;12.27;;
29824;SDS011;16713;52.916;12.834;2023-09-12T07:53:17;21.90;;;13.82;;
29824;SDS011;16713;52.916;12.834;2023-09-12T07:55:44;19.80;;;14.02;;
29824;SDS011;16713;52.916;12.834;2023-09-12T07:58:15;19.77;;;13.98;;
29824;SDS011;16713;52.916;12.834;2023-09-12T08:00:44;22.90;;;14.40;;
29824;SDS011;16713;52.916;12.834;2023-09-12T08:03:10;24.90;;;14.52;;
29824;SDS011;16713;52.916;12.834;2023-09-12T08:05:37;27.63;;;16.48;;
29824;SDS011;16713;52.916;12.834;2023-09-12T08:08:04;27.90;;;15.63;;
29824;SDS011;16713;52.916;12.834;2023-09-12T08:10:31;35.53;;;18.02;;
29824;SDS011;16713;52.916;12.834;2023-09-12T08:12:57;33.47;;;17.58;;
29824;SDS011;16713;52.916;12.834;2023-09-12T08:15:24;27.52;;;15.20;;
29824;SDS011;16713;52.916;12.834;2023-09-12T08:17:50;24.30;;;15.98;;
29824;SDS011;16713;52.916;12.834;2023-09-12T08:20:19;20.83;;;15.60;;
29824;SDS011;16713;52.916;12.834;2023-09-12T08:22:46;24.38;;;15.57;;
29824;SDS011;16713;52.916;12.834;2023-09-12T08:25:13;16.77;;;13.32;;
29824;SDS011;16713;52.916;12.834;2023-09-12T08:27:41;27.85;;;14.93;;
29824;SDS011;16713;52.916;12.834;2023-09-12T08:30:10;27.67;;;13.57;;
29824;SDS011;16713;52.916;12.834;2023-09-12T08:32:39;18.50;;;12.02;;
29824;SDS011;16713;52.916;12.834;2023-09-12T08:35:12;23.50;;;13.27;;
29824;SDS011;16713;52.916;12.834;2023-09-12T08:37:40;21.98;;;12.80;;
29824;SDS011;16713;52.916;12.834;2023-09-12T08:40:08;17.00;;;12.30;;
29824;SDS011;16713;52.916;12.834;2023-09-12T08:42:37;18.50;;;12.10;;
29824;SDS011;16713;52.916;12.834;2023-09-12T08:45:16;15.85;;;11.27;;
29824;SDS011;16713;52.916;12.834;2023-09-12T08:47:44;18.70;;;11.02;;
29824;SDS011;16713;52.916;12.834;2023-09-12T08:50:13;17.30;;;11.10;;
29824;SDS011;16713;52.916;12.834;2023-09-12T08:52:41;19.58;;;11.65;;
29824;SDS011;16713;52.916;12.834;2023-09-12T08:55:25;15.27;;;11.00;;
29824;SDS011;16713;52.916;12.834;2023-09-12T08:57:51;13.00;;;9.13;;
29824;SDS011;16713;52.916;12.834;2023-09-12T09:00:20;16.70;;;10.55;;
29824;SDS011;16713;52.916;12.834;2023-09-12T09:02:48;13.85;;;9.23;;
29824;SDS011;16713;52.916;12.834;2023-09-12T09:05:16;16.83;;;9.10;;
29824;SDS011;16713;52.916;12.834;2023-09-12T09:07:46;15.77;;;9.15;;
29824;SDS011;16713;52.916;12.834;2023-09-12T09:10:14;15.00;;;9.07;;
29824;SDS011;16713;52.916;12.834;2023-09-12T09:12:45;17.98;;;9.38;;
29824;SDS011;16713;52.916;12.834;2023-09-12T09:15:22;17.60;;;9.32;;
29824;SDS011;16713;52.916;12.834;2023-09-12T09:17:56;12.52;;;8.93;;
29824;SDS011;16713;52.916;12.834;2023-09-12T09:23:07;12.68;;;9.20;;
29824;SDS011;16713;52.916;12.834;2023-09-12T09:25:42;14.13;;;8.57;;
29824;SDS011;16713;52.916;12.834;2023-09-12T09:28:18;15.00;;;8.80;;
29824;SDS011;16713;52.916;12.834;2023-09-12T09:30:48;13.48;;;8.25;;
29824;SDS011;16713;52.916;12.834;2023-09-12T09:33:18;10.05;;;7.47;;
29824;SDS011;16713;52.916;12.834;2023-09-12T09:35:48;15.75;;;8.27;;
29824;SDS011;16713;52.916;12.834;2023-09-12T09:38:15;14.73;;;7.93;;
29824;SDS011;16713;52.916;12.834;2023-09-12T09:40:45;18.47;;;8.50;;
29824;SDS011;16713;52.916;12.834;2023-09-12T09:43:12;12.98;;;7.25;;
29824;SDS011;16713;52.916;12.834;2023-09-12T09:45:44;7.55;;;6.45;;
29824;SDS011;16713;52.916;12.834;2023-09-12T09:48:21;11.75;;;6.50;;
29824;SDS011;16713;52.916;12.834;2023-09-12T09:50:49;11.18;;;6.60;;
29824;SDS011;16713;52.916;12.834;2023-09-12T09:53:15;9.35;;;5.95;;
29824;SDS011;16713;52.916;12.834;2023-09-12T09:55:42;11.95;;;6.18;;
29824;SDS011;16713;52.916;12.834;2023-09-12T09:58:10;7.57;;;5.05;;
29824;SDS011;16713;52.916;12.834;2023-09-12T10:00:43;7.20;;;5.55;;
29824;SDS011;16713;52.916;12.834;2023-09-12T10:03:11;8.65;;;5.22;;
29824;SDS011;16713;52.916;12.834;2023-09-12T10:05:39;8.02;;;4.63;;
29824;SDS011;16713;52.916;12.834;2023-09-12T10:08:08;6.30;;;4.40;;
29824;SDS011;16713;52.916;12.834;2023-09-12T10:10:37;7.43;;;4.82;;
29824;SDS011;16713;52.916;12.834;2023-09-12T10:13:04;6.28;;;4.22;;
29824;SDS011;16713;52.916;12.834;2023-09-12T10:15:32;3.75;;;3.00;;
29824;SDS011;16713;52.916;12.834;2023-09-12T10:18:02;3.70;;;2.42;;
29824;SDS011;16713;52.916;12.834;2023-09-12T10:20:50;3.03;;;2.70;;
29824;SDS011;16713;52.916;12.834;2023-09-12T10:28:29;3.25;;;2.10;;
29824;SDS011;16713;52.916;12.834;2023-09-12T10:30:57;1.90;;;1.80;;
29824;SDS011;16713;52.916;12.834;2023-09-12T10:33:25;2.65;;;1.85;;
29824;SDS011;16713;52.916;12.834;2023-09-12T10:35:53;2.30;;;2.10;;
29824;SDS011;16713;52.916;12.834;2023-09-12T10:38:20;2.20;;;2.00;;
29824;SDS011;16713;52.916;12.834;2023-09-12T10:40:47;2.20;;;2.00;;
29824;SDS011;16713;52.916;12.834;2023-09-12T10:43:14;3.28;;;2.20;;
29824;SDS011;16713;52.916;12.834;2023-09-12T10:45:41;2.80;;;2.40;;
29824;SDS011;16713;52.916;12.834;2023-09-12T10:48:09;4.70;;;2.83;;
29824;SDS011;16713;52.916;12.834;2023-09-12T10:50:37;4.13;;;2.15;;
29824;SDS011;16713;52.916;12.834;2023-09-12T10:53:12;2.45;;;2.25;;
29824;SDS011;16713;52.916;12.834;2023-09-12T10:55:41;2.97;;;2.63;;
29824;SDS011;16713;52.916;12.834;2023-09-12T10:58:08;2.97;;;2.55;;
29824;SDS011;16713;52.916;12.834;2023-09-12T11:00:37;3.42;;;2.40;;
29824;SDS011;16713;52.916;12.834;2023-09-12T11:05:54;3.72;;;2.55;;
29824;SDS011;16713;52.916;12.834;2023-09-12T11:08:22;2.70;;;2.50;;
29824;SDS011;16713;52.916;12.834;2023-09-12T11:14:03;2.45;;;1.95;;
29824;SDS011;16713;52.916;12.834;2023-09-12T11:16:34;3.25;;;2.45;;
29824;SDS011;16713;52.916;12.834;2023-09-12T11:19:14;7.25;;;2.63;;
29824;SDS011;16713;52.916;12.834;2023-09-12T11:21:45;4.90;;;2.88;;
29824;SDS011;16713;52.916;12.834;2023-09-12T11:24:13;3.75;;;2.42;;
29824;SDS011;16713;52.916;12.834;2023-09-12T11:27:00;3.92;;;3.00;;
29824;SDS011;16713;52.916;12.834;2023-09-12T11:29:37;5.43;;;2.58;;
29824;SDS011;16713;52.916;12.834;2023-09-12T11:32:05;2.97;;;2.72;;
29824;SDS011;16713;52.916;12.834;2023-09-12T11:34:36;3.55;;;2.65;;
29824;SDS011;16713;52.916;12.834;2023-09-12T11:39:32;4.28;;;2.55;;
29824;SDS011;16713;52.916;12.834;2023-09-12T11:42:00;4.90;;;2.63;;
29824;SDS011;16713;52.916;12.834;2023-09-12T11:44:28;3.78;;;2.58;;
29824;SDS011;16713;52.916;12.834;2023-09-12T11:46:59;3.55;;;2.30;;
29824;SDS011;16713;52.916;12.834;2023-09-12T11:49:35;4.28;;;2.50;;
29824;SDS011;16713;52.916;12.834;2023-09-12T11:54:30;2.50;;;2.30;;
29824;SDS011;16713;52.916;12.834;2023-09-12T11:56:59;3.63;;;2.40;;
29824;SDS011;16713;52.916;12.834;2023-09-12T11:59:31;2.80;;;2.20;;
29824;SDS011;16713;52.916;12.834;2023-09-12T12:01:58;3.25;;;2.50;;
29824;SDS011;16713;52.916;12.834;2023-09-12T12:04:25;4.18;;;3.30;;
29824;SDS011;16713;52.916;12.834;2023-09-12T12:06:54;2.25;;;2.05;;
29824;SDS011;16713;52.916;12.834;2023-09-12T12:09:22;2.42;;;2.17;;
29824;SDS011;16713;52.916;12.834;2023-09-12T12:11:49;2.83;;;2.10;;
29824;SDS011;16713;52.916;12.834;2023-09-12T12:14:16;2.40;;;2.20;;
29824;SDS011;16713;52.916;12.834;2023-09-12T12:16:44;2.80;;;2.40;;
29824;SDS011;16713;52.916;12.834;2023-09-12T12:19:12;2.72;;;2.42;;
29824;SDS011;16713;52.916;12.834;2023-09-12T12:21:40;3.58;;;2.30;;
29824;SDS011;16713;52.916;12.834;2023-09-12T12:24:10;3.03;;;2.22;;
29824;SDS011;16713;52.916;12.834;2023-09-12T12:26:42;4.40;;;2.33;;
29824;SDS011;16713;52.916;12.834;2023-09-12T12:29:09;2.88;;;2.17;;
29824;SDS011;16713;52.916;12.834;2023-09-12T12:31:37;3.00;;;2.47;;
29824;SDS011;16713;52.916;12.834;2023-09-12T12:34:04;3.00;;;2.70;;
29824;SDS011;16713;52.916;12.834;2023-09-12T12:36:51;6.32;;;2.80;;
29824;SDS011;16713;52.916;12.834;2023-09-12T12:39:23;7.05;;;3.08;;
29824;SDS011;16713;52.916;12.834;2023-09-12T12:41:53;3.58;;;2.90;;
29824;SDS011;16713;52.916;12.834;2023-09-12T12:44:21;3.13;;;2.83;;
29824;SDS011;16713;52.916;12.834;2023-09-12T12:46:51;3.10;;;2.83;;
29824;SDS011;16713;52.916;12.834;2023-09-12T12:49:19;4.22;;;3.17;;
29824;SDS011;16713;52.916;12.834;2023-09-12T12:51:47;3.30;;;3.00;;
29824;SDS011;16713;52.916;12.834;2023-09-12T12:54:14;5.30;;;3.10;;
29824;SDS011;16713;52.916;12.834;2023-09-12T12:56:42;3.35;;;3.05;;
29824;SDS011;16713;52.916;12.834;2023-09-12T12:59:11;7.07;;;3.47;;
29824;SDS011;16713;52.916;12.834;2023-09-12T13:01:38;3.65;;;2.92;;
29824;SDS011;16713;52.916;12.834;2023-09-12T13:04:06;6.95;;;3.42;;
29824;SDS011;16713;52.916;12.834;2023-09-12T13:06:34;3.42;;;3.13;;
29824;SDS011;16713;52.916;12.834;2023-09-12T13:09:03;5.32;;;4.00;;
29824;SDS011;16713;52.916;12.834;2023-09-12T13:11:31;6.38;;;3.20;;
29824;SDS011;16713;52.916;12.834;2023-09-12T13:14:01;5.28;;;3.45;;
29824;SDS011;16713;52.916;12.834;2023-09-12T13:16:34;3.58;;;3.28;;
29824;SDS011;16713;52.916;12.834;2023-09-12T13:19:01;3.50;;;3.20;;
29824;SDS011;16713;52.916;12.834;2023-09-12T13:21:28;3.35;;;2.53;;
29824;SDS011;16713;52.916;12.834;2023-09-12T13:23:54;3.10;;;2.63;;
29824;SDS011;16713;52.916;12.834;2023-09-12T13:26:21;5.82;;;2.55;;
29824;SDS011;16713;52.916;12.834;2023-09-12T13:28:47;4.13;;;2.80;;
29824;SDS011;16713;52.916;12.834;2023-09-12T13:31:14;3.00;;;2.55;;
29824;SDS011;16713;52.916;12.834;2023-09-12T13:33:40;2.97;;;2.67;;
29824;SDS011;16713;52.916;12.834;2023-09-12T13:36:09;4.18;;;2.47;;
29824;SDS011;16713;52.916;12.834;2023-09-12T13:38:35;2.75;;;2.40;;
29824;SDS011;16713;52.916;12.834;2023-09-12T13:41:02;3.58;;;2.17;;
29824;SDS011;16713;52.916;12.834;2023-09-12T13:43:29;2.60;;;2.40;;
29824;SDS011;16713;52.916;12.834;2023-09-12T13:45:56;2.28;;;2.00;;
29824;SDS011;16713;52.916;12.834;2023-09-12T13:48:23;2.38;;;2.10;;
29824;SDS011;16713;52.916;12.834;2023-09-12T13:50:49;2.30;;;2.10;;
29824;SDS011;16713;52.916;12.834;2023-09-12T13:53:16;3.55;;;2.33;;
29824;SDS011;16713;52.916;12.834;2023-09-12T13:55:42;2.53;;;2.33;;
29824;SDS011;16713;52.916;12.834;2023-09-12T13:58:29;2.58;;;1.95;;
29824;SDS011;16713;52.916;12.834;2023-09-12T14:01:13;2.10;;;1.88;;
29824;SDS011;16713;52.916;12.834;2023-09-12T14:03:56;2.40;;;1.70;;
29824;SDS011;16713;52.916;12.834;2023-09-12T14:06:23;3.63;;;2.05;;
29824;SDS011;16713;52.916;12.834;2023-09-12T14:08:51;2.22;;;1.60;;
29824;SDS011;16713;52.916;12.834;2023-09-12T14:11:18;2.65;;;1.85;;
29824;SDS011;16713;52.916;12.834;2023-09-12T14:13:59;1.80;;;1.70;;
29824;SDS011;16713;52.916;12.834;2023-09-12T14:16:41;1.60;;;1.50;;
29824;SDS011;16713;52.916;12.834;2023-09-12T14:19:13;2.03;;;1.83;;
29824;SDS011;16713;52.916;12.834;2023-09-12T14:21:41;2.22;;;1.50;;
29824;SDS011;16713;52.916;12.834;2023-09-12T14:24:11;1.73;;;1.63;;
29824;SDS011;16713;52.916;12.834;2023-09-12T14:26:38;2.03;;;1.50;;
29824;SDS011;16713;52.916;12.834;2023-09-12T14:29:07;2.38;;;1.88;;
29824;SDS011;16713;52.916;12.834;2023-09-12T14:31:34;1.80;;;1.50;;
29824;SDS011;16713;52.916;12.834;2023-09-12T14:34:03;3.78;;;1.85;;
29824;SDS011;16713;52.916;12.834;2023-09-12T14:36:31;2.72;;;2.05;;
29824;SDS011;16713;52.916;12.834;2023-09-12T14:38:58;2.20;;;2.00;;
29824;SDS011;16713;52.916;12.834;2023-09-12T14:41:24;2.47;;;2.10;;
29824;SDS011;16713;52.916;12.834;2023-09-12T14:43:50;2.72;;;2.35;;
29824;SDS011;16713;52.916;12.834;2023-09-12T14:46:17;3.15;;;2.55;;
29824;SDS011;16713;52.916;12.834;2023-09-12T14:48:44;2.47;;;2.13;;